Time;durP1;ratioP1;P1;durP2;ratioP2;P2;SDS_P1;SDS_P2;PMS_P1;PMS_P2;Temp;Humidity;BMP_temperature;BMP_pressure;BME280_temperature;BME280_humidity;BME280_pressure;Samples;Min_cycle;Max_cycle;Signal;HPM_P1;HPM_P2
2023/07/06 00:01:45;;;;;;;4.53;2.30;;;14.80;99.90;;;15.34;100.00;98227.97;4964033;28;21029;-88
2023/07/06 00:04:17;;;;;;;3.70;1.80;;;14.70;99.90;;;15.31;100.00;98238.94;4960043;28;20503;-88
2023/07/06 00:06:45;;;;;;;4.50;2.03;;;14.70;99.90;;;15.30;100.00;98231.28;4962292;28;20481;-88
2023/07/06 00:09:14;;;;;;;4.23;2.30;;;14.60;99.90;;;15.23;100.00;98233.94;4963579;28;20468;-88
2023/07/06 00:11:44;;;;;;;4.70;2.23;;;14.60;99.90;;;15.15;100.00;98233.38;4963519;28;20468;-88
2023/07/06 00:14:14;;;;;;;6.70;2.40;;;14.60;99.90;;;15.11;100.00;98230.34;4961833;28;20877;-88
2023/07/06 00:16:48;;;;;;;6.03;3.10;;;14.50;99.90;;;15.05;100.00;98239.09;4967230;28;20458;-88
2023/07/06 00:19:19;;;;;;;4.40;2.07;;;14.50;99.90;;;15.02;100.00;98236.91;4962751;28;20473;-88
2023/07/06 00:21:49;;;;;;;2.97;2.30;;;14.50;99.90;;;14.99;100.00;98235.47;4960824;28;20473;-87
2023/07/06 00:24:17;;;;;;;7.80;2.30;;;14.50;99.90;;;14.93;100.00;98241.59;4964511;28;20544;-88
2023/07/06 00:26:46;;;;;;;3.87;2.07;;;14.40;99.90;;;14.92;100.00;98239.19;4963473;28;20508;-88
2023/07/06 00:29:15;;;;;;;2.23;1.90;;;14.40;99.90;;;14.90;100.00;98238.56;4970859;28;20472;-88
2023/07/06 00:31:52;;;;;;;9.70;2.53;;;14.30;99.90;;;14.84;100.00;98236.78;4964142;28;20468;-87
2023/07/06 00:34:22;;;;;;;3.13;1.70;;;14.30;99.90;;;14.93;100.00;98241.59;4965849;28;20465;-88
2023/07/06 00:36:52;;;;;;;4.60;2.37;;;14.20;99.90;;;14.93;100.00;98238.13;4965766;28;20476;-88
2023/07/06 00:39:22;;;;;;;3.97;2.83;;;14.30;99.90;;;14.91;100.00;98234.91;4964707;28;20474;-88
2023/07/06 00:41:50;;;;;;;5.83;2.83;;;14.20;99.90;;;14.85;100.00;98233.13;4963836;28;20448;-88
2023/07/06 00:44:54;;;;;;;2.70;2.00;;;14.20;99.90;;;14.76;100.00;98239.63;4962424;28;20564;-88
2023/07/06 00:47:36;;;;;;;2.63;1.90;;;14.10;99.90;;;14.70;100.00;98236.03;4960792;28;21042;-87
2023/07/06 00:50:12;;;;;;;7.53;2.27;;;14.10;99.90;;;14.68;100.00;98237.25;4964192;28;20479;-87
2023/07/06 00:52:48;;;;;;;3.63;1.80;;;14.10;99.90;;;14.67;100.00;98240.91;4962898;28;20462;-88
2023/07/06 00:55:20;;;;;;;3.43;2.00;;;14.10;99.90;;;14.74;100.00;98239.84;4965460;28;20476;-87
2023/07/06 00:57:54;;;;;;;3.40;2.37;;;14.00;99.90;;;14.67;100.00;98238.25;4961514;28;20529;-88
2023/07/06 01:00:23;;;;;;;2.90;2.20;;;14.00;99.90;;;14.56;100.00;98234.44;4958992;28;20469;-88
2023/07/06 01:03:00;;;;;;;4.40;1.97;;;14.00;99.90;;;14.64;100.00;98233.41;4962322;28;20500;-88
2023/07/06 01:05:33;;;;;;;6.07;2.07;;;13.90;99.90;;;14.67;100.00;98228.53;4964567;28;20488;-88
2023/07/06 01:08:10;;;;;;;3.10;1.70;;;13.90;99.90;;;14.55;100.00;98232.81;4962568;28;20986;-88
2023/07/06 01:10:40;;;;;;;2.87;2.03;;;13.90;99.90;;;14.52;100.00;98238.50;4966315;28;20551;-87
2023/07/06 01:13:09;;;;;;;5.13;2.30;;;13.90;99.90;;;14.50;100.00;98230.03;4965487;28;20479;-88
2023/07/06 01:15:48;;;;;;;3.10;2.40;;;13.90;99.90;;;14.35;100.00;98232.88;4969086;28;20480;-88
2023/07/06 01:18:28;;;;;;;3.70;2.20;;;13.80;99.90;;;14.30;100.00;98237.91;4970804;28;20519;-89
2023/07/06 01:21:09;;;;;;;6.13;2.30;;;13.80;99.90;;;14.24;100.00;98233.47;4969003;28;20465;-87
2023/07/06 01:24:14;;;;;;;4.50;2.50;;;13.70;99.90;;;14.13;100.00;98233.31;4964714;28;20464;-88
2023/07/06 01:27:17;;;;;;;2.70;1.73;;;13.70;99.90;;;14.07;100.00;98227.03;4969429;28;20461;-87
2023/07/06 01:30:19;;;;;;;5.90;2.97;;;13.60;99.90;;;14.05;100.00;98231.72;4965054;28;20465;-87
2023/07/06 01:32:58;;;;;;;2.50;2.03;;;13.60;99.90;;;14.16;100.00;98233.69;4968806;28;20468;-87
2023/07/06 01:35:36;;;;;;;6.10;2.30;;;13.50;99.90;;;14.23;100.00;98234.50;4968194;28;21102;-88
2023/07/06 01:38:05;;;;;;;2.77;2.47;;;13.50;99.90;;;14.11;100.00;98236.13;4970795;28;20530;-88
2023/07/06 01:40:34;;;;;;;3.07;2.10;;;13.50;99.90;;;14.05;100.00;98236.97;4965017;28;20834;-88
2023/07/06 01:43:02;;;;;;;2.23;1.87;;;13.50;99.90;;;14.03;100.00;98239.78;4963730;28;20465;-88
2023/07/06 01:45:32;;;;;;;4.57;1.90;;;13.40;99.90;;;14.02;100.00;98240.00;4964864;28;20501;-87
2023/07/06 01:48:10;;;;;;;3.53;2.00;;;13.40;99.90;;;14.07;100.00;98245.44;4949080;28;21237;-88
2023/07/06 01:50:49;;;;;;;4.77;2.23;;;13.40;99.90;;;14.02;100.00;98250.53;4967268;28;20491;-88
2023/07/06 01:53:31;;;;;;;7.10;2.87;;;13.30;99.90;;;13.95;100.00;98247.09;4965082;28;20963;-87
2023/07/06 01:56:07;;;;;;;3.10;2.13;;;13.30;99.90;;;13.83;100.00;98248.69;4964415;28;20523;-87
2023/07/06 01:58:44;;;;;;;2.27;1.80;;;13.30;99.90;;;13.81;100.00;98241.03;4966028;28;20530;-88
2023/07/06 02:01:19;;;;;;;2.70;1.67;;;13.30;99.90;;;13.87;100.00;98244.66;4963805;28;20527;-88
2023/07/06 02:03:53;;;;;;;4.23;2.13;;;13.20;99.90;;;13.93;100.00;98244.66;4967614;28;20471;-87
2023/07/06 02:06:22;;;;;;;4.07;2.07;;;13.20;99.90;;;13.90;100.00;98239.00;4966398;28;20469;-88
2023/07/06 02:08:51;;;;;;;4.20;2.50;;;13.20;99.90;;;13.79;100.00;98239.59;4965237;28;20487;-88
2023/07/06 02:11:24;;;;;;;9.10;2.20;;;13.20;99.90;;;13.71;100.00;98234.56;4970528;28;20465;-88
2023/07/06 02:13:53;;;;;;;5.43;2.17;;;13.10;99.90;;;13.74;100.00;98234.16;4966684;28;20974;-87
2023/07/06 02:16:22;;;;;;;7.13;2.10;;;13.10;99.90;;;13.69;100.00;98236.56;4971865;28;20801;-87
2023/07/06 02:18:55;;;;;;;2.97;2.03;;;13.10;99.90;;;13.64;100.00;98237.16;4967189;28;20840;-88
2023/07/06 02:21:24;;;;;;;3.33;1.70;;;13.00;99.90;;;13.52;100.00;98236.16;4967840;28;20477;-87
2023/07/06 02:23:52;;;;;;;5.00;2.40;;;13.00;99.90;;;13.65;100.00;98236.16;4964283;28;20800;-88
2023/07/06 02:26:21;;;;;;;3.80;2.23;;;12.90;99.90;;;13.58;100.00;98241.41;4956694;28;20465;-86
2023/07/06 02:28:49;;;;;;;5.90;2.43;;;13.00;99.90;;;13.55;100.00;98241.00;4964979;28;20461;-87
2023/07/06 02:31:18;;;;;;;3.20;2.50;;;12.90;99.90;;;13.66;100.00;98243.03;4969987;28;20500;-88
2023/07/06 02:33:48;;;;;;;3.20;2.10;;;12.90;99.90;;;13.70;100.00;98240.81;4964780;28;20469;-88
2023/07/06 02:36:18;;;;;;;2.53;2.00;;;12.90;99.90;;;13.64;100.00;98241.63;4965132;28;20527;-88
2023/07/06 02:38:47;;;;;;;2.57;1.80;;;12.90;99.90;;;13.52;100.00;98238.78;4964024;28;20469;-87
2023/07/06 02:41:17;;;;;;;2.77;2.33;;;12.90;99.90;;;13.40;100.00;98235.13;4967750;28;20477;-87
2023/07/06 02:43:46;;;;;;;3.77;1.93;;;12.80;99.90;;;13.45;100.00;98243.22;4966060;28;20490;-87
2023/07/06 02:46:19;;;;;;;8.60;2.33;;;12.80;99.90;;;13.51;100.00;98232.72;4963428;28;20591;-88
2023/07/06 02:48:50;;;;;;;5.57;2.40;;;12.80;99.90;;;13.46;100.00;98237.78;4965412;28;20469;-88
2023/07/06 02:51:22;;;;;;;3.00;2.03;;;12.80;99.90;;;13.44;100.00;98242.41;4963949;28;21044;-89
2023/07/06 02:53:50;;;;;;;7.50;2.17;;;12.80;99.90;;;13.39;100.00;98236.16;4966838;28;20843;-88
2023/07/06 02:56:19;;;;;;;4.33;2.00;;;12.80;99.90;;;13.39;100.00;98236.97;4965726;28;20473;-88
2023/07/06 02:58:48;;;;;;;4.23;1.90;;;12.70;99.90;;;13.35;100.00;98246.25;4968293;28;20468;-88
2023/07/06 03:01:18;;;;;;;3.73;1.80;;;12.70;99.90;;;13.35;100.00;98246.25;4965032;28;20514;-88
2023/07/06 03:03:47;;;;;;;5.77;2.20;;;12.70;99.90;;;13.34;100.00;98244.63;4966877;28;20575;-88
2023/07/06 03:06:17;;;;;;;4.93;2.13;;;12.70;99.90;;;13.31;100.00;98250.28;4969895;28;20508;-88
2023/07/06 03:08:48;;;;;;;4.33;2.20;;;12.70;99.90;;;13.23;100.00;98247.81;4965836;28;20472;-86
2023/07/06 03:11:17;;;;;;;2.33;1.77;;;12.60;99.90;;;13.27;100.00;98249.03;4964625;28;20473;-88
2023/07/06 03:13:45;;;;;;;4.03;2.10;;;12.60;99.90;;;13.22;100.00;98246.22;4962975;28;20484;-88
2023/07/06 03:16:14;;;;;;;2.33;2.13;;;12.60;99.90;;;13.16;100.00;98249.63;4964790;28;20473;-88
2023/07/06 03:18:46;;;;;;;2.93;2.00;;;12.50;99.90;;;13.09;100.00;98246.16;4964344;28;20461;-88
2023/07/06 03:21:15;;;;;;;8.40;2.63;;;12.50;99.90;;;13.02;100.00;98255.81;4959215;28;20564;-86
2023/07/06 03:23:44;;;;;;;4.07;2.27;;;12.50;99.90;;;12.99;100.00;98253.56;4955707;28;20471;-84
2023/07/06 03:26:14;;;;;;;4.77;2.20;;;12.40;99.90;;;13.01;100.00;98252.41;4961920;28;20908;-85
2023/07/06 03:28:43;;;;;;;4.30;2.13;;;12.40;99.90;;;12.94;100.00;98253.38;4958390;28;20464;-90
2023/07/06 03:31:21;;;;;;;6.30;1.90;;;12.40;99.90;;;13.04;100.00;98253.81;4962130;28;20476;-84
2023/07/06 03:33:50;;;;;;;4.10;2.30;;;12.40;99.90;;;13.09;100.00;98264.53;4961372;28;20489;-84
2023/07/06 03:36:19;;;;;;;3.30;2.00;;;12.40;99.90;;;13.06;100.00;98259.66;4963816;28;20469;-84
2023/07/06 03:38:49;;;;;;;2.53;1.80;;;12.40;99.90;;;13.02;100.00;98255.81;4958472;28;20958;-85
2023/07/06 03:41:20;;;;;;;4.07;2.13;;;12.40;99.90;;;13.00;100.00;98257.81;4956779;28;20483;-84
2023/07/06 03:43:49;;;;;;;2.90;1.93;;;12.30;99.90;;;12.96;100.00;98256.59;4958280;28;20860;-85
2023/07/06 03:46:17;;;;;;;2.90;1.90;;;12.30;99.90;;;13.03;100.00;98257.44;4960233;28;20593;-84
2023/07/06 03:48:47;;;;;;;6.20;2.43;;;12.30;99.90;;;12.99;100.00;98261.44;4960477;28;20469;-85
2023/07/06 03:51:15;;;;;;;3.77;1.67;;;12.30;99.90;;;12.90;100.00;98267.88;4958590;28;20492;-83
2023/07/06 03:53:46;;;;;;;3.30;1.87;;;12.30;99.90;;;12.84;100.00;98263.44;4965338;28;20903;-83
2023/07/06 03:56:27;;;;;;;4.37;1.93;;;12.30;99.90;;;12.89;100.00;98274.13;4961983;28;21130;-84
2023/07/06 03:58:57;;;;;;;2.50;2.00;;;12.20;99.90;;;12.96;100.00;98264.47;4964222;28;20496;-85
2023/07/06 04:01:27;;;;;;;8.20;2.10;;;12.20;99.90;;;12.92;100.00;98265.88;4964258;28;20485;-85
2023/07/06 04:03:57;;;;;;;2.23;1.77;;;12.20;99.90;;;12.92;100.00;98265.88;4964312;28;20470;-84
2023/07/06 04:06:29;;;;;;;6.70;2.27;;;12.20;99.90;;;12.94;100.00;98271.75;4963755;28;20480;-84
2023/07/06 04:08:58;;;;;;;3.37;2.30;;;12.20;99.90;;;12.88;100.00;98267.25;4960489;28;20950;-83
2023/07/06 04:11:27;;;;;;;2.50;1.87;;;12.20;99.90;;;12.91;100.00;98270.31;4961420;28;20468;-84
2023/07/06 04:13:57;;;;;;;3.50;1.83;;;12.20;99.90;;;12.94;100.00;98277.00;4962738;28;20481;-84
2023/07/06 04:16:26;;;;;;;2.40;2.03;;;12.20;99.90;;;12.92;100.00;98279.81;4959736;28;20494;-84
2023/07/06 04:18:55;;;;;;;3.93;1.80;;;12.20;99.90;;;12.91;100.00;98285.25;4958663;28;20480;-84
2023/07/06 04:21:24;;;;;;;2.97;2.27;;;12.20;99.90;;;12.90;100.00;98291.50;4957680;28;20501;-86
2023/07/06 04:23:52;;;;;;;4.73;2.57;;;12.20;99.90;;;12.93;100.00;98291.13;4958356;28;20475;-86
2023/07/06 04:26:24;;;;;;;10.73;1.90;;;12.20;99.90;;;12.92;100.00;98297.38;4958591;28;20540;-85
2023/07/06 04:28:54;;;;;;;2.77;2.10;;;12.20;99.90;;;12.94;100.00;98295.38;4957748;28;20508;-85
2023/07/06 04:31:23;;;;;;;3.37;2.23;;;12.20;99.90;;;12.97;100.00;98289.72;4961348;28;20964;-86
2023/07/06 04:33:51;;;;;;;12.70;3.00;;;12.30;99.90;;;12.96;100.00;98294.16;4961420;28;20472;-86
2023/07/06 04:36:20;;;;;;;5.23;2.17;;;12.30;99.90;;;12.91;100.00;98291.31;4962405;28;20473;-86
2023/07/06 04:38:49;;;;;;;2.87;2.20;;;12.30;99.90;;;12.93;100.00;98289.31;4961375;28;20469;-85
2023/07/06 04:41:18;;;;;;;3.30;1.90;;;12.30;99.90;;;12.96;100.00;98307.28;4959512;28;20477;-85
2023/07/06 04:43:46;;;;;;;3.00;2.70;;;12.30;99.90;;;12.98;100.00;98301.84;4961496;28;20469;-86
2023/07/06 04:46:16;;;;;;;3.93;2.33;;;12.30;99.90;;;12.97;100.00;98298.41;4960186;28;20611;-86
2023/07/06 04:48:45;;;;;;;2.80;2.03;;;12.30;99.90;;;13.00;100.00;98299.81;4959257;28;20465;-85
2023/07/06 04:51:14;;;;;;;4.50;2.63;;;12.30;99.90;;;13.05;100.00;98300.06;4956866;28;20481;-84
2023/07/06 04:53:43;;;;;;;3.30;2.03;;;12.30;99.90;;;13.08;100.00;98297.81;4956643;28;20975;-85
2023/07/06 04:56:12;;;;;;;3.03;2.53;;;12.30;99.90;;;13.19;100.00;98304.34;4954874;28;20485;-85
2023/07/06 04:58:44;;;;;;;4.07;2.63;;;12.30;99.90;;;13.23;100.00;98307.41;4955830;28;20464;-87
2023/07/06 05:01:14;;;;;;;3.00;2.17;;;12.40;99.90;;;13.18;100.00;98302.75;4958778;28;20475;-83
2023/07/06 05:03:44;;;;;;;2.50;2.27;;;12.40;99.90;;;13.13;100.00;98305.16;4958520;28;20465;-86
2023/07/06 05:06:13;;;;;;;3.37;1.87;;;12.50;99.90;;;13.08;100.00;98304.91;4960370;28;20508;-86
2023/07/06 05:08:43;;;;;;;5.03;2.40;;;12.40;99.90;;;13.10;100.00;98308.19;4959906;28;20832;-88
2023/07/06 05:11:12;;;;;;;8.17;2.40;;;12.40;99.90;;;13.10;100.00;98309.00;4957155;28;20473;-85
2023/07/06 05:13:40;;;;;;;2.30;2.10;;;12.40;99.90;;;13.15;100.00;98307.59;4960974;28;21026;-86
2023/07/06 05:16:09;;;;;;;7.60;1.73;;;12.40;99.90;;;13.21;100.00;98302.38;4954732;28;20465;-87
2023/07/06 05:18:39;;;;;;;3.47;2.27;;;12.50;99.90;;;13.30;100.00;98308.22;4958055;28;20457;-84
2023/07/06 05:21:09;;;;;;;2.17;1.80;;;12.50;99.90;;;13.37;100.00;98303.81;4961875;28;20468;-86
2023/07/06 05:23:38;;;;;;;3.23;2.37;;;12.50;99.90;;;13.37;100.00;98302.00;4956664;28;20461;-85
2023/07/06 05:26:07;;;;;;;2.87;2.27;;;12.60;99.90;;;13.36;100.00;98302.22;4957884;28;20493;-85
2023/07/06 05:28:36;;;;;;;4.53;1.97;;;12.60;99.90;;;13.35;100.00;98306.66;4960878;28;20461;-85
2023/07/06 05:31:05;;;;;;;2.83;1.87;;;12.60;99.90;;;13.37;100.00;98315.13;4957211;28;20477;-85
2023/07/06 05:33:33;;;;;;;3.33;2.37;;;12.60;99.90;;;13.39;100.00;98305.25;4957282;28;20561;-85
2023/07/06 05:36:03;;;;;;;3.60;2.47;;;12.70;99.90;;;13.46;100.00;98300.81;4954377;28;20481;-85
2023/07/06 05:38:32;;;;;;;2.27;1.87;;;12.70;99.90;;;13.54;100.00;98305.06;4961259;28;20484;-85
2023/07/06 05:41:03;;;;;;;3.07;2.07;;;12.70;99.90;;;13.58;100.00;98308.91;4960076;28;20468;-84
2023/07/06 05:43:31;;;;;;;5.43;2.17;;;12.80;99.90;;;13.61;100.00;98303.25;4958747;28;20997;-85
2023/07/06 05:46:00;;;;;;;5.07;2.30;;;12.80;99.90;;;13.67;100.00;98296.41;4958927;28;20840;-85
2023/07/06 05:48:30;;;;;;;4.17;2.10;;;12.80;99.90;;;13.72;100.00;98296.59;4959663;28;20479;-85
2023/07/06 05:50:58;;;;;;;2.80;2.00;;;13.00;99.90;;;13.77;100.00;98302.09;4958482;28;20488;-84
2023/07/06 05:53:28;;;;;;;5.63;2.70;;;12.90;99.90;;;13.84;100.00;98301.09;4958794;28;20465;-84
2023/07/06 05:55:58;;;;;;;4.43;2.30;;;13.00;99.90;;;13.90;100.00;98297.63;4961686;28;20500;-85
2023/07/06 05:58:27;;;;;;;3.10;2.13;;;13.00;99.90;;;13.91;100.00;98295.81;4962546;28;20493;-85
2023/07/06 06:00:57;;;;;;;4.00;2.20;;;13.10;99.90;;;13.94;100.00;98298.03;4962681;28;20481;-83
2023/07/06 06:03:25;;;;;;;4.10;2.10;;;13.10;99.90;;;14.01;100.00;98296.22;4963525;28;20468;-84
2023/07/06 06:05:54;;;;;;;3.53;2.47;;;13.20;99.90;;;14.08;100.00;98299.66;4964294;28;20468;-85
2023/07/06 06:08:24;;;;;;;4.50;2.17;;;13.20;99.90;;;14.15;100.00;98308.38;4965144;28;20496;-85
2023/07/06 06:10:55;;;;;;;2.93;2.60;;;13.30;99.90;;;14.18;100.00;98305.31;4959158;28;20465;-86
2023/07/06 06:13:24;;;;;;;2.90;2.00;;;13.30;99.90;;;14.22;100.00;98314.44;4960892;28;20481;-85
2023/07/06 06:15:53;;;;;;;9.10;3.07;;;13.40;99.90;;;14.27;100.00;98319.06;4960865;28;21038;-87
2023/07/06 06:18:22;;;;;;;5.83;3.07;;;13.40;99.90;;;14.30;100.00;98316.06;4958272;28;20479;-84
2023/07/06 06:20:51;;;;;;;4.77;1.93;;;13.50;99.90;;;14.34;100.00;98318.09;4957009;28;22166;-85
2023/07/06 06:23:20;;;;;;;3.30;2.10;;;13.50;99.90;;;14.42;100.00;98320.50;4957494;28;20879;-86
2023/07/06 06:25:48;;;;;;;5.67;3.53;;;13.60;99.90;;;14.48;100.00;98314.44;4960885;28;20458;-85
2023/07/06 06:28:20;;;;;;;3.97;2.20;;;13.60;99.90;;;14.55;100.00;98314.41;4957051;28;20500;-85
2023/07/06 06:30:48;;;;;;;5.13;2.40;;;13.70;99.90;;;14.60;100.00;98323.31;4959221;28;20464;-85
2023/07/06 06:33:17;;;;;;;2.23;1.97;;;13.80;99.90;;;14.67;100.00;98330.38;4959394;28;20476;-85
2023/07/06 06:35:46;;;;;;;4.70;2.30;;;13.80;99.90;;;14.74;100.00;98328.56;4959202;28;20528;-85
2023/07/06 06:38:15;;;;;;;11.03;2.37;;;13.90;99.90;;;14.78;100.00;98333.22;4957258;28;20495;-85
2023/07/06 06:40:44;;;;;;;3.60;2.13;;;14.00;99.90;;;14.84;100.00;98336.81;4957686;28;20475;-85
2023/07/06 06:43:13;;;;;;;4.30;2.00;;;14.00;99.90;;;14.89;100.00;98340.44;4957660;28;20498;-85
2023/07/06 06:45:42;;;;;;;3.20;2.00;;;14.10;99.90;;;14.95;100.00;98341.47;4961383;28;20474;-85
2023/07/06 06:48:11;;;;;;;4.17;2.17;;;14.10;99.90;;;15.00;100.00;98331.91;4961599;28;20547;-84
2023/07/06 06:50:40;;;;;;;3.13;1.60;;;14.20;99.90;;;15.07;100.00;98342.41;4964038;28;20500;-84
2023/07/06 06:53:08;;;;;;;4.47;1.97;;;14.30;99.90;;;15.14;100.00;98340.56;4958058;28;20466;-85
2023/07/06 06:55:37;;;;;;;17.53;2.53;;;14.40;99.90;;;15.21;100.00;98338.72;4961529;28;20523;-84
2023/07/06 06:58:05;;;;;;;10.03;2.07;;;14.50;99.90;;;15.28;100.00;98339.50;4965108;28;20477;-85
2023/07/06 07:00:34;;;;;;;2.03;1.50;;;14.50;99.90;;;15.33;100.00;98339.69;4961047;28;20481;-84
2023/07/06 07:03:04;;;;;;;2.27;1.50;;;14.60;99.90;;;15.41;100.00;98341.28;4962899;28;20464;-84
2023/07/06 07:05:32;;;;;;;6.27;1.80;;;14.60;99.90;;;15.47;100.00;98340.44;4962967;28;20476;-85
2023/07/06 07:08:01;;;;;;;1.70;1.40;;;14.70;99.90;;;15.52;100.00;98335.34;4957831;28;20508;-84
2023/07/06 07:10:30;;;;;;;15.40;8.33;;;14.70;99.90;;;15.58;100.00;98340.59;4958758;28;20470;-82
2023/07/06 07:12:58;;;;;;;15.87;7.97;;;14.80;99.90;;;15.65;100.00;98339.75;4960521;28;20488;-85
2023/07/06 07:15:27;;;;;;;4.03;2.77;;;14.80;99.90;;;15.68;100.00;98340.16;4960984;28;20477;-84
2023/07/06 07:17:57;;;;;;;6.43;1.87;;;14.90;99.90;;;15.73;100.00;98331.59;4960240;28;20526;-85
2023/07/06 07:20:28;;;;;;;2.57;1.40;;;14.90;99.90;;;15.79;100.00;98333.41;4960410;28;20465;-86
2023/07/06 07:22:58;;;;;;;1.80;1.27;;;15.00;99.90;;;15.83;100.00;98338.00;4953821;28;20462;-85
2023/07/06 07:25:28;;;;;;;2.93;1.37;;;15.10;99.80;;;15.88;100.00;98340.81;4958007;28;20482;-85
2023/07/06 07:27:59;;;;;;;1.87;1.27;;;15.10;98.70;;;15.93;100.00;98343.63;4962794;28;20488;-85
2023/07/06 07:30:27;;;;;;;1.30;1.20;;;15.20;99.00;;;15.97;100.00;98341.38;4959381;28;20499;-85
2023/07/06 07:32:57;;;;;;;23.17;13.80;;;15.20;97.30;;;16.04;98.29;98344.75;4960293;28;20508;-89
2023/07/06 07:35:27;;;;;;;58.37;29.30;;;15.30;96.90;;;16.09;100.00;98342.31;4962695;28;20477;-85
2023/07/06 07:37:56;;;;;;;24.63;14.80;;;15.30;97.20;;;16.14;98.04;98342.44;4958206;28;20469;-84
2023/07/06 07:40:24;;;;;;;1.97;1.43;;;15.40;97.10;;;16.21;99.59;98339.78;4957556;28;20503;-84
2023/07/06 07:42:53;;;;;;;1.83;1.20;;;15.40;96.80;;;16.29;95.62;98350.06;4957509;28;20498;-84
2023/07/06 07:45:23;;;;;;;221.00;115.67;;;15.50;97.30;;;16.37;92.17;98340.03;4957479;28;20518;-84
2023/07/06 07:47:51;;;;;;;4.90;2.70;;;15.60;95.90;;;16.44;92.22;98338.16;4955785;28;20500;-84
2023/07/06 07:50:20;;;;;;;2.03;1.40;;;15.70;96.00;;;16.51;92.65;98341.53;4956605;28;21026;-86
2023/07/06 07:52:50;;;;;;;1.90;1.20;;;15.70;96.40;;;16.60;92.57;98340.25;4961709;28;20533;-84
2023/07/06 07:55:20;;;;;;;3.37;2.03;;;15.90;96.10;;;16.69;92.20;98338.16;4960479;28;20464;-84
2023/07/06 07:57:49;;;;;;;4.57;1.70;;;15.90;95.90;;;16.77;91.76;98335.22;4962052;28;20963;-84
2023/07/06 08:00:18;;;;;;;1.83;1.10;;;16.00;96.00;;;16.84;91.37;98330.66;4961796;28;20473;-84
2023/07/06 08:02:47;;;;;;;2.80;1.10;;;16.10;95.90;;;16.92;90.96;98332.22;4958361;28;20929;-84
2023/07/06 08:05:16;;;;;;;2.17;1.20;;;16.20;95.70;;;17.00;89.97;98324.00;4960348;28;20479;-84
2023/07/06 08:07:45;;;;;;;2.07;1.40;;;16.20;95.50;;;17.06;90.83;98323.91;4961149;28;20591;-84
2023/07/06 08:10:16;;;;;;;6.30;1.20;;;16.30;95.50;;;17.11;89.85;98325.91;4960480;28;20919;-84
2023/07/06 08:12:44;;;;;;;2.03;1.30;;;16.40;95.00;;;17.16;89.66;98320.75;4960610;28;20472;-85
2023/07/06 08:15:13;;;;;;;2.23;1.20;;;16.40;95.20;;;17.21;87.56;98333.31;4959282;28;20468;-84
2023/07/06 08:17:43;;;;;;;1.90;1.23;;;16.40;94.30;;;17.28;77.70;98326.91;4961457;28;20531;-84
2023/07/06 08:20:13;;;;;;;2.50;1.40;;;16.70;93.20;;;17.37;73.22;98316.81;4961664;28;20500;-84
2023/07/06 08:23:06;;;;;;;1.40;1.07;;;16.80;91.90;;;17.49;72.89;98315.06;4961404;28;20501;-84
2023/07/06 08:25:41;;;;;;;5.63;1.40;;;16.90;91.40;;;17.56;71.79;98319.22;4959160;28;20477;-84
2023/07/06 08:28:13;;;;;;;2.13;1.10;;;16.90;91.50;;;17.69;70.78;98325.38;4958791;28;20988;-84
2023/07/06 08:30:42;;;;;;;4.53;1.40;;;17.00;91.20;;;17.76;74.13;98324.25;4958963;28;20468;-84
2023/07/06 08:33:11;;;;;;;6.77;1.67;;;17.20;92.60;;;17.79;75.68;98323.00;4960164;28;20465;-86
2023/07/06 08:35:44;;;;;;;2.80;1.57;;;17.10;92.90;;;17.86;74.85;98323.69;4963898;28;20862;-84
2023/07/06 08:38:13;;;;;;;2.93;1.30;;;17.20;92.60;;;17.91;75.15;98318.53;4964160;28;20488;-85
2023/07/06 08:40:48;;;;;;;1.40;1.10;;;17.30;92.50;;;17.93;74.92;98319.13;4961577;28;20839;-84
2023/07/06 08:43:20;;;;;;;2.17;1.50;;;17.30;92.60;;;17.95;71.11;98319.69;4959575;28;20472;-84
2023/07/06 08:45:53;;;;;;;3.00;1.50;;;17.40;91.50;;;17.97;71.86;98321.09;4958878;28;20516;-84
2023/07/06 08:48:26;;;;;;;3.60;1.40;;;17.30;91.70;;;18.02;71.97;98317.75;4960135;28;20502;-84
2023/07/06 08:50:59;;;;;;;2.70;1.33;;;17.40;91.80;;;18.03;72.96;98322.00;4960204;28;20489;-84
2023/07/06 08:53:34;;;;;;;1.97;1.33;;;17.30;91.80;;;18.04;73.39;98318.34;4963166;28;20465;-84
2023/07/06 08:56:11;;;;;;;3.90;2.13;;;17.40;92.40;;;18.06;73.56;98318.91;4960029;28;20974;-84
2023/07/06 08:58:41;;;;;;;3.07;1.37;;;17.40;92.10;;;18.10;74.28;98322.72;4962417;28;20499;-84
2023/07/06 09:01:13;;;;;;;4.03;1.30;;;17.40;92.40;;;18.14;74.12;98325.69;4961874;28;20483;-84
2023/07/06 09:03:49;;;;;;;15.47;1.77;;;17.40;92.10;;;18.18;74.10;98326.88;4960625;28;20839;-85
2023/07/06 09:06:21;;;;;;;5.07;1.70;;;17.40;92.50;;;18.26;74.51;98329.16;4961007;28;20500;-84
2023/07/06 09:08:54;;;;;;;2.90;1.60;;;17.50;92.40;;;18.27;73.73;98328.94;4961114;28;20545;-85
2023/07/06 09:11:24;;;;;;;2.70;1.37;;;17.50;91.80;;;18.35;73.74;98331.25;4960923;28;20461;-84
2023/07/06 09:13:55;;;;;;;1.30;1.10;;;17.60;92.40;;;18.38;72.23;98333.44;4959450;28;20962;-84
2023/07/06 09:16:25;;;;;;;2.30;1.50;;;17.60;91.70;;;18.50;71.35;98323.69;4959606;28;20470;-84
2023/07/06 09:18:55;;;;;;;4.30;1.80;;;17.80;91.70;;;18.62;73.50;98325.53;4960054;28;20564;-84
2023/07/06 09:21:26;;;;;;;2.07;1.50;;;17.90;92.50;;;18.71;73.79;98321.50;4960606;28;20887;-84
2023/07/06 09:23:58;;;;;;;1.53;1.10;;;18.00;92.60;;;18.76;72.85;98318.94;4962424;28;20457;-84
2023/07/06 09:26:33;;;;;;;3.33;1.40;;;18.00;91.40;;;18.81;71.33;98317.19;4961527;28;20476;-84
2023/07/06 09:29:21;;;;;;;1.70;1.20;;;18.00;91.40;;;18.83;69.25;98325.75;4957234;28;20573;-84
2023/07/06 09:31:50;;;;;;;2.47;1.40;;;18.00;91.00;;;18.91;69.80;98321.94;4960020;28;20460;-84
2023/07/06 09:34:36;;;;;;;2.00;1.53;;;18.10;91.80;;;18.96;69.34;98330.78;4960495;28;20468;-84
2023/07/06 09:37:06;;;;;;;4.33;1.53;;;18.20;91.10;;;19.04;67.91;98329.63;4960477;28;20839;-84
2023/07/06 09:39:34;;;;;;;2.77;1.33;;;18.30;90.90;;;19.07;68.32;98329.16;4964944;28;20464;-84
2023/07/06 09:42:05;;;;;;;2.80;1.73;;;18.30;91.10;;;19.13;66.10;98320.25;4963673;28;20476;-85
2023/07/06 09:44:34;;;;;;;2.40;1.50;;;18.50;90.50;;;19.20;67.54;98323.56;4964713;28;20469;-84
2023/07/06 09:47:03;;;;;;;2.03;1.30;;;18.50;91.00;;;19.29;67.92;98314.22;4967773;28;20476;-84
2023/07/06 09:49:43;;;;;;;4.70;1.50;;;18.60;91.10;;;19.37;64.94;98313.81;4963006;28;20505;-85
2023/07/06 09:52:17;;;;;;;1.60;1.20;;;18.80;90.20;;;19.45;63.81;98324.09;4965252;28;20521;-83
2023/07/06 09:54:57;;;;;;;1.60;1.23;;;18.90;89.90;;;19.44;61.96;98316.38;4965688;28;20460;-83
2023/07/06 09:57:32;;;;;;;5.80;1.57;;;19.00;88.50;;;19.44;63.20;98319.03;4965800;28;20471;-83
2023/07/06 10:00:03;;;;;;;3.20;1.33;;;18.90;89.50;;;19.47;63.97;98318.56;4965039;28;20471;-84
2023/07/06 10:02:43;;;;;;;3.03;1.93;;;18.90;90.10;;;19.46;61.86;98312.47;4960903;28;20463;-84
2023/07/06 10:05:31;;;;;;;3.43;1.50;;;19.00;88.70;;;19.50;63.34;98310.94;4966574;28;20497;-84
2023/07/06 10:08:11;;;;;;;1.97;1.47;;;18.90;89.90;;;19.52;64.34;98308.03;4964543;28;20476;-85
2023/07/06 10:10:53;;;;;;;2.93;1.70;;;18.90;90.30;;;19.60;63.63;98312.97;4964677;28;20468;-84
2023/07/06 10:13:37;;;;;;;2.70;1.37;;;18.90;90.00;;;19.65;63.03;98309.59;4963261;28;20479;-85
2023/07/06 10:16:20;;;;;;;2.77;1.73;;;19.00;89.80;;;19.71;60.63;98316.63;4962834;28;21175;-84
2023/07/06 10:18:58;;;;;;;7.53;1.93;;;19.10;87.90;;;19.72;60.56;98315.56;4964183;28;20508;-84
2023/07/06 10:21:36;;;;;;;2.90;1.60;;;19.10;88.00;;;19.71;60.00;98311.31;4961937;28;20465;-84
2023/07/06 10:24:30;;;;;;;1.77;1.30;;;19.10;87.60;;;19.68;60.28;98322.41;4962913;28;20456;-84
2023/07/06 10:27:04;;;;;;;2.30;1.27;;;19.20;87.70;;;19.63;59.95;98319.66;4961847;28;20564;-84
2023/07/06 10:29:43;;;;;;;3.00;1.30;;;19.10;87.70;;;19.67;59.49;98320.78;4967067;28;20862;-84
2023/07/06 10:32:18;;;;;;;2.07;1.60;;;19.10;87.20;;;19.69;58.34;98318.69;4962714;28;20473;-84